sensor_id;sensor_type;location;lat;lon;timestamp;P1;durP1;ratioP1;P2;durP2;ratioP2
71127;SDS011;59249;59.736;30.568;2023-06-14T00:01:19;9.63;;;4.97;;
71127;SDS011;59249;59.736;30.568;2023-06-14T00:03:48;13.18;;;5.90;;
71127;SDS011;59249;59.736;30.568;2023-06-14T00:06:19;17.10;;;5.82;;
71127;SDS011;59249;59.736;30.568;2023-06-14T00:08:47;12.32;;;6.00;;
71127;SDS011;59249;59.736;30.568;2023-06-14T00:11:17;12.57;;;5.10;;
71127;SDS011;59249;59.736;30.568;2023-06-14T00:13:46;12.13;;;5.47;;
71127;SDS011;59249;59.736;30.568;2023-06-14T00:16:15;11.43;;;5.68;;
71127;SDS011;59249;59.736;30.568;2023-06-14T00:18:46;14.05;;;5.47;;
71127;SDS011;59249;59.736;30.568;2023-06-14T00:21:15;11.15;;;5.45;;
71127;SDS011;59249;59.736;30.568;2023-06-14T00:23:45;12.53;;;4.50;;
71127;SDS011;59249;59.736;30.568;2023-06-14T00:26:14;14.32;;;5.20;;
71127;SDS011;59249;59.736;30.568;2023-06-14T00:28:43;14.35;;;5.25;;
71127;SDS011;59249;59.736;30.568;2023-06-14T00:31:12;12.82;;;4.78;;
71127;SDS011;59249;59.736;30.568;2023-06-14T00:33:41;13.52;;;4.72;;
71127;SDS011;59249;59.736;30.568;2023-06-14T00:36:12;10.07;;;5.00;;
71127;SDS011;59249;59.736;30.568;2023-06-14T00:38:42;13.30;;;5.05;;
71127;SDS011;59249;59.736;30.568;2023-06-14T00:41:12;12.55;;;5.20;;
71127;SDS011;59249;59.736;30.568;2023-06-14T00:43:42;13.20;;;5.43;;
71127;SDS011;59249;59.736;30.568;2023-06-14T00:46:11;13.90;;;5.10;;
71127;SDS011;59249;59.736;30.568;2023-06-14T00:48:40;13.80;;;5.43;;
71127;SDS011;59249;59.736;30.568;2023-06-14T00:51:09;12.38;;;5.00;;
71127;SDS011;59249;59.736;30.568;2023-06-14T00:53:38;9.95;;;4.35;;
71127;SDS011;59249;59.736;30.568;2023-06-14T00:56:14;9.50;;;4.47;;
71127;SDS011;59249;59.736;30.568;2023-06-14T00:58:50;13.57;;;5.07;;
71127;SDS011;59249;59.736;30.568;2023-06-14T01:01:19;13.67;;;5.07;;
71127;SDS011;59249;59.736;30.568;2023-06-14T01:03:48;11.07;;;5.20;;
71127;SDS011;59249;59.736;30.568;2023-06-14T01:06:20;14.02;;;5.10;;
71127;SDS011;59249;59.736;30.568;2023-06-14T01:09:04;10.18;;;4.65;;
71127;SDS011;59249;59.736;30.568;2023-06-14T01:11:47;11.38;;;5.40;;
71127;SDS011;59249;59.736;30.568;2023-06-14T01:14:31;12.50;;;4.50;;
71127;SDS011;59249;59.736;30.568;2023-06-14T01:17:02;14.98;;;4.93;;
71127;SDS011;59249;59.736;30.568;2023-06-14T01:19:34;12.73;;;5.72;;
71127;SDS011;59249;59.736;30.568;2023-06-14T01:22:05;9.63;;;5.03;;
71127;SDS011;59249;59.736;30.568;2023-06-14T01:24:35;7.45;;;4.43;;
71127;SDS011;59249;59.736;30.568;2023-06-14T01:27:06;9.90;;;4.50;;
71127;SDS011;59249;59.736;30.568;2023-06-14T01:29:36;11.18;;;4.90;;
71127;SDS011;59249;59.736;30.568;2023-06-14T01:32:05;13.68;;;5.38;;
71127;SDS011;59249;59.736;30.568;2023-06-14T01:34:36;11.20;;;4.88;;
71127;SDS011;59249;59.736;30.568;2023-06-14T01:37:05;10.52;;;4.60;;
71127;SDS011;59249;59.736;30.568;2023-06-14T01:39:37;12.63;;;5.03;;
71127;SDS011;59249;59.736;30.568;2023-06-14T01:42:06;12.13;;;5.60;;
71127;SDS011;59249;59.736;30.568;2023-06-14T01:44:35;12.15;;;5.72;;
71127;SDS011;59249;59.736;30.568;2023-06-14T01:47:05;13.15;;;5.88;;
71127;SDS011;59249;59.736;30.568;2023-06-14T01:49:35;9.05;;;4.43;;
71127;SDS011;59249;59.736;30.568;2023-06-14T01:52:06;10.57;;;5.03;;
71127;SDS011;59249;59.736;30.568;2023-06-14T01:54:38;12.45;;;5.18;;
71127;SDS011;59249;59.736;30.568;2023-06-14T01:57:09;11.45;;;5.18;;
71127;SDS011;59249;59.736;30.568;2023-06-14T01:59:38;11.30;;;5.10;;
71127;SDS011;59249;59.736;30.568;2023-06-14T02:02:08;11.65;;;4.85;;
71127;SDS011;59249;59.736;30.568;2023-06-14T02:04:37;9.70;;;4.50;;
71127;SDS011;59249;59.736;30.568;2023-06-14T02:07:05;9.85;;;4.47;;
71127;SDS011;59249;59.736;30.568;2023-06-14T02:09:35;12.60;;;5.10;;
71127;SDS011;59249;59.736;30.568;2023-06-14T02:12:05;12.70;;;5.32;;
71127;SDS011;59249;59.736;30.568;2023-06-14T02:14:35;11.15;;;5.15;;
71127;SDS011;59249;59.736;30.568;2023-06-14T02:17:05;11.60;;;4.90;;
71127;SDS011;59249;59.736;30.568;2023-06-14T02:19:34;15.93;;;4.72;;
71127;SDS011;59249;59.736;30.568;2023-06-14T02:22:06;9.75;;;4.78;;
71127;SDS011;59249;59.736;30.568;2023-06-14T02:24:34;10.07;;;3.90;;
71127;SDS011;59249;59.736;30.568;2023-06-14T02:27:08;14.55;;;4.68;;
71127;SDS011;59249;59.736;30.568;2023-06-14T02:29:38;11.60;;;4.73;;
71127;SDS011;59249;59.736;30.568;2023-06-14T02:32:07;8.07;;;4.50;;
71127;SDS011;59249;59.736;30.568;2023-06-14T02:34:38;8.35;;;4.03;;
71127;SDS011;59249;59.736;30.568;2023-06-14T02:37:08;10.02;;;4.05;;
71127;SDS011;59249;59.736;30.568;2023-06-14T02:39:37;9.02;;;3.88;;
71127;SDS011;59249;59.736;30.568;2023-06-14T02:42:07;10.70;;;3.90;;
71127;SDS011;59249;59.736;30.568;2023-06-14T02:44:41;10.05;;;3.80;;
71127;SDS011;59249;59.736;30.568;2023-06-14T02:47:10;9.85;;;4.47;;
71127;SDS011;59249;59.736;30.568;2023-06-14T02:49:39;16.02;;;5.10;;
71127;SDS011;59249;59.736;30.568;2023-06-14T02:52:08;9.98;;;4.38;;
71127;SDS011;59249;59.736;30.568;2023-06-14T02:54:37;10.70;;;3.87;;
71127;SDS011;59249;59.736;30.568;2023-06-14T02:57:06;11.45;;;4.53;;
71127;SDS011;59249;59.736;30.568;2023-06-14T02:59:36;11.60;;;4.57;;
71127;SDS011;59249;59.736;30.568;2023-06-14T03:02:06;10.30;;;4.82;;
71127;SDS011;59249;59.736;30.568;2023-06-14T03:04:35;10.25;;;4.28;;
71127;SDS011;59249;59.736;30.568;2023-06-14T03:07:12;7.37;;;3.80;;
71127;SDS011;59249;59.736;30.568;2023-06-14T03:09:49;7.93;;;4.07;;
71127;SDS011;59249;59.736;30.568;2023-06-14T03:12:19;8.00;;;3.80;;
71127;SDS011;59249;59.736;30.568;2023-06-14T03:14:50;9.18;;;4.00;;
71127;SDS011;59249;59.736;30.568;2023-06-14T03:17:22;6.93;;;3.60;;
71127;SDS011;59249;59.736;30.568;2023-06-14T03:19:51;10.23;;;3.57;;
71127;SDS011;59249;59.736;30.568;2023-06-14T03:22:20;10.73;;;3.72;;
71127;SDS011;59249;59.736;30.568;2023-06-14T03:24:49;11.38;;;3.88;;
71127;SDS011;59249;59.736;30.568;2023-06-14T03:27:18;12.73;;;3.80;;
71127;SDS011;59249;59.736;30.568;2023-06-14T03:29:48;12.10;;;4.10;;
71127;SDS011;59249;59.736;30.568;2023-06-14T03:32:18;10.07;;;3.67;;
71127;SDS011;59249;59.736;30.568;2023-06-14T03:34:47;9.88;;;4.10;;
71127;SDS011;59249;59.736;30.568;2023-06-14T03:37:21;9.15;;;3.83;;
71127;SDS011;59249;59.736;30.568;2023-06-14T03:39:50;9.52;;;3.95;;
71127;SDS011;59249;59.736;30.568;2023-06-14T03:42:22;11.40;;;4.00;;
71127;SDS011;59249;59.736;30.568;2023-06-14T03:44:52;9.87;;;4.10;;
71127;SDS011;59249;59.736;30.568;2023-06-14T03:47:22;14.80;;;4.47;;
71127;SDS011;59249;59.736;30.568;2023-06-14T03:49:51;9.30;;;4.05;;
71127;SDS011;59249;59.736;30.568;2023-06-14T03:52:20;12.00;;;3.90;;
71127;SDS011;59249;59.736;30.568;2023-06-14T03:54:50;13.32;;;4.10;;
71127;SDS011;59249;59.736;30.568;2023-06-14T03:57:23;11.97;;;4.67;;
71127;SDS011;59249;59.736;30.568;2023-06-14T03:59:55;8.65;;;3.78;;
71127;SDS011;59249;59.736;30.568;2023-06-14T04:02:24;7.75;;;3.50;;
71127;SDS011;59249;59.736;30.568;2023-06-14T04:04:55;9.13;;;3.95;;
71127;SDS011;59249;59.736;30.568;2023-06-14T04:07:26;7.95;;;4.07;;
71127;SDS011;59249;59.736;30.568;2023-06-14T04:09:55;10.10;;;3.93;;
71127;SDS011;59249;59.736;30.568;2023-06-14T04:12:29;11.15;;;4.40;;
71127;SDS011;59249;59.736;30.568;2023-06-14T04:15:00;10.82;;;3.50;;
71127;SDS011;59249;59.736;30.568;2023-06-14T04:17:46;11.25;;;4.40;;
71127;SDS011;59249;59.736;30.568;2023-06-14T04:20:16;8.15;;;4.07;;
71127;SDS011;59249;59.736;30.568;2023-06-14T04:22:46;10.87;;;4.10;;
71127;SDS011;59249;59.736;30.568;2023-06-14T04:25:16;8.80;;;3.83;;
71127;SDS011;59249;59.736;30.568;2023-06-14T04:27:52;11.63;;;5.53;;
71127;SDS011;59249;59.736;30.568;2023-06-14T04:30:33;7.20;;;3.95;;
71127;SDS011;59249;59.736;30.568;2023-06-14T04:33:06;12.07;;;4.15;;
71127;SDS011;59249;59.736;30.568;2023-06-14T04:35:37;8.60;;;3.80;;
71127;SDS011;59249;59.736;30.568;2023-06-14T04:38:08;8.57;;;3.65;;
71127;SDS011;59249;59.736;30.568;2023-06-14T04:40:43;10.77;;;3.72;;
71127;SDS011;59249;59.736;30.568;2023-06-14T04:43:16;8.63;;;3.80;;
71127;SDS011;59249;59.736;30.568;2023-06-14T04:45:54;8.60;;;3.60;;
71127;SDS011;59249;59.736;30.568;2023-06-14T04:48:24;11.80;;;4.03;;
71127;SDS011;59249;59.736;30.568;2023-06-14T04:50:54;10.55;;;3.67;;
71127;SDS011;59249;59.736;30.568;2023-06-14T04:53:23;7.40;;;3.30;;
71127;SDS011;59249;59.736;30.568;2023-06-14T04:55:55;8.50;;;4.00;;
71127;SDS011;59249;59.736;30.568;2023-06-14T04:58:25;12.93;;;4.07;;
71127;SDS011;59249;59.736;30.568;2023-06-14T05:00:56;9.63;;;3.70;;
71127;SDS011;59249;59.736;30.568;2023-06-14T05:03:26;11.10;;;3.78;;
71127;SDS011;59249;59.736;30.568;2023-06-14T05:05:57;8.73;;;4.13;;
71127;SDS011;59249;59.736;30.568;2023-06-14T05:08:27;8.93;;;3.70;;
71127;SDS011;59249;59.736;30.568;2023-06-14T05:10:56;8.70;;;2.95;;
71127;SDS011;59249;59.736;30.568;2023-06-14T05:13:26;12.23;;;4.07;;
71127;SDS011;59249;59.736;30.568;2023-06-14T05:15:56;11.93;;;3.65;;
71127;SDS011;59249;59.736;30.568;2023-06-14T05:18:26;11.27;;;3.67;;
71127;SDS011;59249;59.736;30.568;2023-06-14T05:20:54;8.88;;;2.72;;
71127;SDS011;59249;59.736;30.568;2023-06-14T05:23:23;11.68;;;3.03;;
71127;SDS011;59249;59.736;30.568;2023-06-14T05:25:52;14.43;;;2.63;;
71127;SDS011;59249;59.736;30.568;2023-06-14T05:28:21;9.23;;;2.55;;
71127;SDS011;59249;59.736;30.568;2023-06-14T05:30:50;7.85;;;1.92;;
71127;SDS011;59249;59.736;30.568;2023-06-14T05:33:21;7.15;;;2.45;;
71127;SDS011;59249;59.736;30.568;2023-06-14T05:35:50;6.13;;;2.40;;
71127;SDS011;59249;59.736;30.568;2023-06-14T05:38:19;7.53;;;3.00;;
71127;SDS011;59249;59.736;30.568;2023-06-14T05:40:47;10.35;;;2.67;;
71127;SDS011;59249;59.736;30.568;2023-06-14T05:43:16;8.75;;;2.15;;
71127;SDS011;59249;59.736;30.568;2023-06-14T05:45:46;9.70;;;2.92;;
71127;SDS011;59249;59.736;30.568;2023-06-14T05:48:15;12.23;;;2.38;;
71127;SDS011;59249;59.736;30.568;2023-06-14T05:50:45;8.70;;;2.33;;
71127;SDS011;59249;59.736;30.568;2023-06-14T05:53:14;8.90;;;2.33;;
71127;SDS011;59249;59.736;30.568;2023-06-14T05:55:42;8.73;;;2.45;;
71127;SDS011;59249;59.736;30.568;2023-06-14T05:58:11;12.48;;;2.92;;
71127;SDS011;59249;59.736;30.568;2023-06-14T06:00:41;6.70;;;2.30;;
71127;SDS011;59249;59.736;30.568;2023-06-14T06:03:14;6.57;;;2.40;;
71127;SDS011;59249;59.736;30.568;2023-06-14T06:05:42;6.32;;;1.92;;
71127;SDS011;59249;59.736;30.568;2023-06-14T06:08:13;9.82;;;2.38;;
71127;SDS011;59249;59.736;30.568;2023-06-14T06:16:01;8.45;;;1.98;;
71127;SDS011;59249;59.736;30.568;2023-06-14T06:18:30;6.27;;;2.07;;
71127;SDS011;59249;59.736;30.568;2023-06-14T06:21:01;7.50;;;2.22;;
71127;SDS011;59249;59.736;30.568;2023-06-14T06:23:31;10.30;;;2.40;;
71127;SDS011;59249;59.736;30.568;2023-06-14T06:26:01;6.55;;;2.00;;
71127;SDS011;59249;59.736;30.568;2023-06-14T06:28:29;7.50;;;1.90;;
71127;SDS011;59249;59.736;30.568;2023-06-14T06:31:01;5.90;;;1.90;;
71127;SDS011;59249;59.736;30.568;2023-06-14T06:33:31;5.90;;;1.90;;
71127;SDS011;59249;59.736;30.568;2023-06-14T06:36:01;6.13;;;2.20;;
71127;SDS011;59249;59.736;30.568;2023-06-14T06:38:30;6.47;;;1.73;;
71127;SDS011;59249;59.736;30.568;2023-06-14T06:40:59;6.60;;;1.95;;
71127;SDS011;59249;59.736;30.568;2023-06-14T06:43:28;7.47;;;1.93;;
71127;SDS011;59249;59.736;30.568;2023-06-14T06:46:00;9.75;;;2.55;;
71127;SDS011;59249;59.736;30.568;2023-06-14T06:48:29;7.35;;;2.17;;
71127;SDS011;59249;59.736;30.568;2023-06-14T06:50:59;10.23;;;3.13;;
71127;SDS011;59249;59.736;30.568;2023-06-14T06:53:29;6.72;;;1.88;;
71127;SDS011;59249;59.736;30.568;2023-06-14T06:56:09;7.23;;;2.03;;
71127;SDS011;59249;59.736;30.568;2023-06-14T06:58:38;9.18;;;2.30;;
71127;SDS011;59249;59.736;30.568;2023-06-14T07:01:07;6.75;;;2.05;;
71127;SDS011;59249;59.736;30.568;2023-06-14T07:03:37;3.80;;;1.50;;
71127;SDS011;59249;59.736;30.568;2023-06-14T07:06:05;5.20;;;2.00;;
71127;SDS011;59249;59.736;30.568;2023-06-14T07:08:36;6.03;;;2.07;;
71127;SDS011;59249;59.736;30.568;2023-06-14T07:11:06;5.15;;;1.60;;
71127;SDS011;59249;59.736;30.568;2023-06-14T07:13:35;9.55;;;2.22;;
71127;SDS011;59249;59.736;30.568;2023-06-14T07:16:04;5.38;;;2.28;;
71127;SDS011;59249;59.736;30.568;2023-06-14T07:18:33;3.78;;;1.70;;
71127;SDS011;59249;59.736;30.568;2023-06-14T07:21:04;7.27;;;1.80;;
71127;SDS011;59249;59.736;30.568;2023-06-14T07:23:33;4.03;;;1.65;;
71127;SDS011;59249;59.736;30.568;2023-06-14T07:26:03;9.27;;;1.83;;
71127;SDS011;59249;59.736;30.568;2023-06-14T07:28:32;4.82;;;1.55;;
71127;SDS011;59249;59.736;30.568;2023-06-14T07:31:04;8.07;;;1.60;;
71127;SDS011;59249;59.736;30.568;2023-06-14T07:33:33;4.03;;;1.63;;
71127;SDS011;59249;59.736;30.568;2023-06-14T07:36:02;4.35;;;1.50;;
71127;SDS011;59249;59.736;30.568;2023-06-14T07:38:31;5.47;;;1.80;;
71127;SDS011;59249;59.736;30.568;2023-06-14T07:41:00;7.25;;;1.60;;
71127;SDS011;59249;59.736;30.568;2023-06-14T07:43:31;4.15;;;1.38;;
71127;SDS011;59249;59.736;30.568;2023-06-14T07:46:00;4.50;;;1.67;;
71127;SDS011;59249;59.736;30.568;2023-06-14T07:48:34;4.43;;;1.60;;
71127;SDS011;59249;59.736;30.568;2023-06-14T07:51:03;6.10;;;2.05;;
71127;SDS011;59249;59.736;30.568;2023-06-14T07:53:32;4.75;;;2.40;;
71127;SDS011;59249;59.736;30.568;2023-06-14T07:56:01;3.70;;;1.67;;
71127;SDS011;59249;59.736;30.568;2023-06-14T07:58:32;6.70;;;2.23;;
71127;SDS011;59249;59.736;30.568;2023-06-14T08:01:01;4.88;;;1.63;;
71127;SDS011;59249;59.736;30.568;2023-06-14T08:03:33;5.68;;;2.00;;
71127;SDS011;59249;59.736;30.568;2023-06-14T08:06:03;7.15;;;2.40;;
71127;SDS011;59249;59.736;30.568;2023-06-14T08:08:34;7.30;;;2.08;;
71127;SDS011;59249;59.736;30.568;2023-06-14T08:11:03;4.70;;;2.03;;
71127;SDS011;59249;59.736;30.568;2023-06-14T08:13:33;8.10;;;2.35;;
71127;SDS011;59249;59.736;30.568;2023-06-14T08:16:02;4.95;;;2.10;;
71127;SDS011;59249;59.736;30.568;2023-06-14T08:18:32;5.35;;;2.10;;
71127;SDS011;59249;59.736;30.568;2023-06-14T08:21:01;6.60;;;2.05;;
71127;SDS011;59249;59.736;30.568;2023-06-14T08:23:30;7.93;;;2.23;;
71127;SDS011;59249;59.736;30.568;2023-06-14T08:25:59;7.95;;;2.58;;
71127;SDS011;59249;59.736;30.568;2023-06-14T08:28:30;6.05;;;2.20;;
71127;SDS011;59249;59.736;30.568;2023-06-14T08:31:01;6.78;;;1.90;;
71127;SDS011;59249;59.736;30.568;2023-06-14T08:33:30;5.57;;;2.20;;
71127;SDS011;59249;59.736;30.568;2023-06-14T08:36:00;10.23;;;2.93;;
71127;SDS011;59249;59.736;30.568;2023-06-14T08:38:29;5.70;;;2.40;;
71127;SDS011;59249;59.736;30.568;2023-06-14T08:40:58;7.53;;;2.30;;
71127;SDS011;59249;59.736;30.568;2023-06-14T08:43:30;5.28;;;2.38;;
71127;SDS011;59249;59.736;30.568;2023-06-14T08:46:00;5.65;;;2.63;;
71127;SDS011;59249;59.736;30.568;2023-06-14T08:48:32;7.80;;;2.30;;
71127;SDS011;59249;59.736;30.568;2023-06-14T08:51:01;7.78;;;2.78;;
71127;SDS011;59249;59.736;30.568;2023-06-14T08:53:33;6.10;;;2.53;;
71127;SDS011;59249;59.736;30.568;2023-06-14T08:56:08;6.70;;;2.65;;
71127;SDS011;59249;59.736;30.568;2023-06-14T08:58:40;5.32;;;2.47;;
71127;SDS011;59249;59.736;30.568;2023-06-14T09:01:14;8.20;;;3.00;;
71127;SDS011;59249;59.736;30.568;2023-06-14T09:03:44;5.72;;;2.30;;
71127;SDS011;59249;59.736;30.568;2023-06-14T09:06:15;6.70;;;2.67;;
71127;SDS011;59249;59.736;30.568;2023-06-14T09:08:46;6.13;;;2.60;;
71127;SDS011;59249;59.736;30.568;2023-06-14T09:11:15;6.40;;;2.60;;
71127;SDS011;59249;59.736;30.568;2023-06-14T09:13:47;5.27;;;2.53;;
71127;SDS011;59249;59.736;30.568;2023-06-14T09:16:18;6.38;;;2.30;;
71127;SDS011;59249;59.736;30.568;2023-06-14T09:18:47;4.70;;;2.40;;
71127;SDS011;59249;59.736;30.568;2023-06-14T09:21:17;5.53;;;2.65;;
71127;SDS011;59249;59.736;30.568;2023-06-14T09:23:47;6.32;;;2.13;;
71127;SDS011;59249;59.736;30.568;2023-06-14T09:26:17;7.30;;;1.90;;
71127;SDS011;59249;59.736;30.568;2023-06-14T09:28:47;4.47;;;1.77;;
71127;SDS011;59249;59.736;30.568;2023-06-14T09:31:20;7.22;;;1.90;;
71127;SDS011;59249;59.736;30.568;2023-06-14T09:33:50;4.65;;;1.65;;
71127;SDS011;59249;59.736;30.568;2023-06-14T09:36:21;4.18;;;1.60;;
71127;SDS011;59249;59.736;30.568;2023-06-14T09:38:51;5.70;;;2.20;;
71127;SDS011;59249;59.736;30.568;2023-06-14T09:41:27;6.63;;;2.03;;
71127;SDS011;59249;59.736;30.568;2023-06-14T09:44:01;5.35;;;2.00;;
71127;SDS011;59249;59.736;30.568;2023-06-14T09:46:38;5.38;;;1.92;;
71127;SDS011;59249;59.736;30.568;2023-06-14T09:49:07;5.93;;;2.03;;
71127;SDS011;59249;59.736;30.568;2023-06-14T09:51:42;6.37;;;1.90;;
71127;SDS011;59249;59.736;30.568;2023-06-14T09:54:14;4.55;;;1.98;;
71127;SDS011;59249;59.736;30.568;2023-06-14T09:56:46;7.20;;;2.20;;
71127;SDS011;59249;59.736;30.568;2023-06-14T09:59:18;5.82;;;2.30;;
71127;SDS011;59249;59.736;30.568;2023-06-14T10:01:58;5.82;;;2.15;;
71127;SDS011;59249;59.736;30.568;2023-06-14T10:04:32;8.77;;;2.70;;
71127;SDS011;59249;59.736;30.568;2023-06-14T10:07:03;6.13;;;1.88;;
71127;SDS011;59249;59.736;30.568;2023-06-14T10:09:33;4.65;;;1.90;;
71127;SDS011;59249;59.736;30.568;2023-06-14T10:12:10;5.70;;;1.90;;
71127;SDS011;59249;59.736;30.568;2023-06-14T10:14:45;6.18;;;2.13;;
71127;SDS011;59249;59.736;30.568;2023-06-14T10:17:20;5.37;;;1.53;;
71127;SDS011;59249;59.736;30.568;2023-06-14T10:20:03;5.95;;;2.10;;
71127;SDS011;59249;59.736;30.568;2023-06-14T10:22:47;3.83;;;1.60;;
71127;SDS011;59249;59.736;30.568;2023-06-14T10:25:28;4.63;;;1.80;;
71127;SDS011;59249;59.736;30.568;2023-06-14T10:28:02;6.45;;;1.80;;
71127;SDS011;59249;59.736;30.568;2023-06-14T10:31:02;4.27;;;1.70;;
71127;SDS011;59249;59.736;30.568;2023-06-14T10:33:35;6.78;;;1.90;;
71127;SDS011;59249;59.736;30.568;2023-06-14T10:36:11;6.80;;;1.73;;
71127;SDS011;59249;59.736;30.568;2023-06-14T10:39:04;5.80;;;1.63;;
71127;SDS011;59249;59.736;30.568;2023-06-14T10:41:36;4.25;;;1.65;;
71127;SDS011;59249;59.736;30.568;2023-06-14T10:47:11;7.00;;;2.25;;
71127;SDS011;59249;59.736;30.568;2023-06-14T10:49:53;4.43;;;1.60;;
71127;SDS011;59249;59.736;30.568;2023-06-14T10:52:25;8.02;;;1.90;;
71127;SDS011;59249;59.736;30.568;2023-06-14T10:54:58;4.78;;;1.60;;
71127;SDS011;59249;59.736;30.568;2023-06-14T10:57:41;5.47;;;1.80;;
71127;SDS011;59249;59.736;30.568;2023-06-14T11:00:19;5.55;;;1.73;;
71127;SDS011;59249;59.736;30.568;2023-06-14T11:03:18;5.78;;;1.30;;
71127;SDS011;59249;59.736;30.568;2023-06-14T11:06:14;3.75;;;1.38;;
71127;SDS011;59249;59.736;30.568;2023-06-14T11:08:52;4.90;;;1.85;;
71127;SDS011;59249;59.736;30.568;2023-06-14T11:11:54;5.40;;;1.50;;
71127;SDS011;59249;59.736;30.568;2023-06-14T11:14:25;9.15;;;2.55;;
71127;SDS011;59249;59.736;30.568;2023-06-14T11:16:57;4.65;;;2.03;;
71127;SDS011;59249;59.736;30.568;2023-06-14T11:19:27;4.63;;;2.10;;
71127;SDS011;59249;59.736;30.568;2023-06-14T11:21:58;4.70;;;1.70;;
71127;SDS011;59249;59.736;30.568;2023-06-14T11:24:27;5.13;;;1.90;;
71127;SDS011;59249;59.736;30.568;2023-06-14T11:26:56;4.30;;;1.75;;
71127;SDS011;59249;59.736;30.568;2023-06-14T11:29:25;3.83;;;1.80;;
71127;SDS011;59249;59.736;30.568;2023-06-14T11:31:57;3.97;;;1.40;;
71127;SDS011;59249;59.736;30.568;2023-06-14T11:34:26;7.68;;;2.60;;
71127;SDS011;59249;59.736;30.568;2023-06-14T11:36:55;5.40;;;1.97;;
71127;SDS011;59249;59.736;30.568;2023-06-14T11:39:25;5.75;;;1.95;;
71127;SDS011;59249;59.736;30.568;2023-06-14T11:41:55;4.72;;;1.88;;
71127;SDS011;59249;59.736;30.568;2023-06-14T11:44:28;4.13;;;1.70;;
71127;SDS011;59249;59.736;30.568;2023-06-14T11:46:57;6.25;;;1.90;;
71127;SDS011;59249;59.736;30.568;2023-06-14T11:49:26;4.43;;;2.03;;
71127;SDS011;59249;59.736;30.568;2023-06-14T11:51:55;6.15;;;1.98;;
71127;SDS011;59249;59.736;30.568;2023-06-14T11:54:25;6.40;;;2.20;;
71127;SDS011;59249;59.736;30.568;2023-06-14T11:56:54;7.35;;;2.20;;
71127;SDS011;59249;59.736;30.568;2023-06-14T11:59:23;11.20;;;2.00;;
71127;SDS011;59249;59.736;30.568;2023-06-14T12:01:54;6.87;;;2.10;;
71127;SDS011;59249;59.736;30.568;2023-06-14T12:04:23;5.13;;;1.95;;
71127;SDS011;59249;59.736;30.568;2023-06-14T12:06:53;7.65;;;2.75;;
71127;SDS011;59249;59.736;30.568;2023-06-14T12:09:22;8.45;;;2.17;;
71127;SDS011;59249;59.736;30.568;2023-06-14T12:11:59;7.68;;;2.45;;
71127;SDS011;59249;59.736;30.568;2023-06-14T12:14:29;10.73;;;2.93;;
71127;SDS011;59249;59.736;30.568;2023-06-14T12:17:03;5.95;;;2.30;;
71127;SDS011;59249;59.736;30.568;2023-06-14T12:19:41;4.75;;;1.80;;
71127;SDS011;59249;59.736;30.568;2023-06-14T12:22:11;10.00;;;2.72;;
71127;SDS011;59249;59.736;30.568;2023-06-14T12:24:43;6.57;;;2.30;;
71127;SDS011;59249;59.736;30.568;2023-06-14T12:27:13;10.37;;;2.30;;
71127;SDS011;59249;59.736;30.568;2023-06-14T12:29:42;11.20;;;2.63;;
71127;SDS011;59249;59.736;30.568;2023-06-14T12:32:12;6.55;;;2.33;;
71127;SDS011;59249;59.736;30.568;2023-06-14T12:34:41;7.80;;;2.35;;
71127;SDS011;59249;59.736;30.568;2023-06-14T12:37:09;6.85;;;2.40;;
71127;SDS011;59249;59.736;30.568;2023-06-14T12:39:39;5.30;;;2.10;;
71127;SDS011;59249;59.736;30.568;2023-06-14T12:42:09;4.70;;;1.92;;
71127;SDS011;59249;59.736;30.568;2023-06-14T12:44:40;10.27;;;2.30;;
71127;SDS011;59249;59.736;30.568;2023-06-14T12:47:09;4.82;;;1.75;;
71127;SDS011;59249;59.736;30.568;2023-06-14T12:49:39;5.78;;;1.75;;
71127;SDS011;59249;59.736;30.568;2023-06-14T12:52:09;5.60;;;1.83;;
71127;SDS011;59249;59.736;30.568;2023-06-14T12:54:39;5.65;;;2.25;;
71127;SDS011;59249;59.736;30.568;2023-06-14T12:57:09;6.00;;;2.38;;
71127;SDS011;59249;59.736;30.568;2023-06-14T12:59:38;4.75;;;2.17;;
71127;SDS011;59249;59.736;30.568;2023-06-14T13:02:12;5.32;;;2.25;;
71127;SDS011;59249;59.736;30.568;2023-06-14T13:04:42;6.37;;;1.90;;
71127;SDS011;59249;59.736;30.568;2023-06-14T13:07:12;5.72;;;2.15;;
71127;SDS011;59249;59.736;30.568;2023-06-14T13:09:41;5.40;;;1.80;;
71127;SDS011;59249;59.736;30.568;2023-06-14T13:12:14;7.03;;;2.63;;
71127;SDS011;59249;59.736;30.568;2023-06-14T13:14:43;9.30;;;2.13;;
71127;SDS011;59249;59.736;30.568;2023-06-14T13:17:12;6.93;;;2.17;;
71127;SDS011;59249;59.736;30.568;2023-06-14T13:19:41;5.25;;;1.98;;
71127;SDS011;59249;59.736;30.568;2023-06-14T13:22:10;8.05;;;2.13;;
71127;SDS011;59249;59.736;30.568;2023-06-14T13:24:39;8.35;;;2.40;;
71127;SDS011;59249;59.736;30.568;2023-06-14T13:27:09;7.28;;;2.75;;
71127;SDS011;59249;59.736;30.568;2023-06-14T13:29:41;7.60;;;2.83;;
71127;SDS011;59249;59.736;30.568;2023-06-14T13:32:10;6.25;;;2.38;;
71127;SDS011;59249;59.736;30.568;2023-06-14T13:34:39;6.32;;;2.30;;
71127;SDS011;59249;59.736;30.568;2023-06-14T13:37:08;7.80;;;2.47;;
71127;SDS011;59249;59.736;30.568;2023-06-14T13:39:37;4.95;;;1.90;;
71127;SDS011;59249;59.736;30.568;2023-06-14T13:42:06;4.67;;;2.00;;
71127;SDS011;59249;59.736;30.568;2023-06-14T13:44:35;5.50;;;2.20;;
71127;SDS011;59249;59.736;30.568;2023-06-14T13:47:06;7.65;;;2.08;;
71127;SDS011;59249;59.736;30.568;2023-06-14T13:49:35;5.35;;;2.13;;
71127;SDS011;59249;59.736;30.568;2023-06-14T13:52:04;7.82;;;2.33;;
71127;SDS011;59249;59.736;30.568;2023-06-14T13:54:34;5.60;;;2.23;;
71127;SDS011;59249;59.736;30.568;2023-06-14T13:57:03;6.25;;;2.75;;
71127;SDS011;59249;59.736;30.568;2023-06-14T13:59:33;6.55;;;2.22;;
71127;SDS011;59249;59.736;30.568;2023-06-14T14:02:02;6.93;;;2.20;;
71127;SDS011;59249;59.736;30.568;2023-06-14T14:04:34;5.45;;;2.22;;
71127;SDS011;59249;59.736;30.568;2023-06-14T14:07:03;7.73;;;2.60;;
71127;SDS011;59249;59.736;30.568;2023-06-14T14:09:34;6.38;;;2.45;;
71127;SDS011;59249;59.736;30.568;2023-06-14T14:12:04;5.60;;;2.40;;
71127;SDS011;59249;59.736;30.568;2023-06-14T14:14:34;8.98;;;2.90;;
71127;SDS011;59249;59.736;30.568;2023-06-14T14:17:04;7.38;;;2.90;;
71127;SDS011;59249;59.736;30.568;2023-06-14T14:19:35;8.37;;;2.43;;
71127;SDS011;59249;59.736;30.568;2023-06-14T14:22:04;8.90;;;2.30;;
71127;SDS011;59249;59.736;30.568;2023-06-14T14:24:34;7.47;;;2.78;;
71127;SDS011;59249;59.736;30.568;2023-06-14T14:27:03;5.32;;;2.60;;
71127;SDS011;59249;59.736;30.568;2023-06-14T14:29:33;5.65;;;2.75;;
71127;SDS011;59249;59.736;30.568;2023-06-14T14:32:02;6.93;;;2.70;;
71127;SDS011;59249;59.736;30.568;2023-06-14T14:34:36;5.50;;;2.30;;
71127;SDS011;59249;59.736;30.568;2023-06-14T14:37:05;9.15;;;4.03;;
71127;SDS011;59249;59.736;30.568;2023-06-14T14:39:34;7.65;;;3.08;;
71127;SDS011;59249;59.736;30.568;2023-06-14T14:42:04;11.27;;;3.65;;
71127;SDS011;59249;59.736;30.568;2023-06-14T14:44:35;10.27;;;3.77;;
71127;SDS011;59249;59.736;30.568;2023-06-14T14:47:04;8.48;;;3.85;;
71127;SDS011;59249;59.736;30.568;2023-06-14T14:49:33;9.35;;;3.80;;
71127;SDS011;59249;59.736;30.568;2023-06-14T14:52:04;7.25;;;3.50;;
71127;SDS011;59249;59.736;30.568;2023-06-14T14:54:50;7.45;;;3.38;;
71127;SDS011;59249;59.736;30.568;2023-06-14T14:57:20;11.70;;;4.17;;
71127;SDS011;59249;59.736;30.568;2023-06-14T14:59:49;8.55;;;3.65;;
71127;SDS011;59249;59.736;30.568;2023-06-14T15:02:18;7.25;;;3.60;;